Track Мизонов Сергей

Time Latitude Longitude Accuracy (66% radius in meters) Altitude (meters) Speed (km/hour) Bearing (degrees) Battery (%) GPS flag
10:24:17 60.370952 29.556347 16 81.730439928976 0 319.9006652832 82 1 delete
10:24:08 60.370952 29.556347 24 81.998175949342 0 319.9006652832 82 1 delete
10:23:56 60.370952 29.556347 32 82.366170740074 0 319.9006652832 82 1 delete
10:23:47 60.370952 29.556347 24 82.452573889593 0 319.9006652832 82 1 delete
10:23:38 60.370919 29.556418 6 83.644982072067 1.8165464401245 284.53350830078 82 1 delete
10:23:35 60.370903 29.556556 12 84.105552668951 0 303.04196166992 82 1 delete
10:23:23 60.370836 29.556693 8 85.288302996211 1.5400956869125 303.04196166992 82 1 delete
10:23:20 60.370809 29.556734 8 85.523246137089 0 315.31872558594 82 1 delete
10:23:14 60.370760 29.556927 8 86.009457051579 0 296.56967163086 82 1 delete
10:23:02 60.370760 29.556927 8 87.002068657346 0 296.56967163086 82 1 delete
10:22:53 60.370760 29.556927 8 87.235914202585 0 296.56967163086 82 1 delete
10:22:50 60.370760 29.556927 16 87.644326951375 0 296.56967163086 82 1 delete
10:22:47 60.370776 29.557049 12 90.964715642488 5.7037491798401 318.42233276367 82 1 delete
10:22:44 60.370746 29.557261 8 93.058171421296 5.4172286987305 242.27767944336 82 1 delete
10:22:41 60.370861 29.557263 8 93.355204224131 7.2858357429504 142.87522888184 82 1 delete
10:22:38 60.371031 29.556947 8 92.79534894193 8.2860851287842 185.90280151367 82 1 delete
10:22:35 60.371247 29.556980 8 88.924570893186 6.1250767707825 192.94923400879 82 1 delete
10:22:32 60.371433 29.557101 8 85.892545167581 6.5609140396118 210.12055969238 82 1 delete
10:22:29 60.371598 29.557323 8 82.940579310339 6.1654644012451 215.32179260254 82 1 delete
10:22:26 60.371712 29.557566 8 82.615937474431 6.0270304679871 242.16674804688 82 1 delete
10:22:23 60.371777 29.557867 8 83.114933752953 5.1356048583984 247.2240447998 82 1 delete
10:22:20 60.371838 29.558117 8 84.771522375416 2.9137933254242 242.44412231445 82 1 delete
10:22:17 60.371861 29.558281 12 85.02970887496 0 251.73095703125 82 1 delete
10:22:14 60.371874 29.558374 12 85.453280980272 1.5748988389969 252.48419189453 82 1 delete
10:22:11 60.371905 29.558573 8 86.367677316952 5.6032776832581 254.64457702637 82 1 delete
10:22:08 60.371961 29.558955 8 89.73695653152 7.2170877456665 252.32202148438 82 1 delete
10:22:05 60.372035 29.559465 6 94.418209416664 6.3649969100952 249.89854431152 82 1 delete
10:22:02 60.372116 29.559927 6 98.916721684031 7.9486594200134 247.90028381348 82 1 delete
10:21:59 60.372179 29.560426 8 101.59430420499 6.969907283783 247.05079650879 82 1 delete
10:21:56 60.372104 29.560892 8 104.00385742624 5.0989022254944 300.09838867188 82 1 delete
10:21:53 60.371994 29.561216 8 102.67596695316 4.5624408721924 296.58526611328 82 1 delete
10:21:50 60.371887 29.561484 8 100.90488601878 4.2217831611633 326.71914672852 82 1 delete
10:21:47 60.371746 29.561655 8 98.113631859228 4.1959986686707 359.56344604492 82 1 delete
10:21:44 60.371645 29.561810 8 97.989537375368 4.3808045387268 324.0104675293 82 1 delete
10:21:41 60.371567 29.562028 6 97.373385038653 4.4176421165466 285.75134277344 82 1 delete
10:21:38 60.371540 29.562287 8 97.85335064145 4.4788904190063 282.35461425781 82 1 delete
10:21:35 60.371480 29.562634 8 99.070290997116 4.2809138298035 307.38952636719 82 1 delete
10:21:32 60.371395 29.562915 8 99.854484579676 4.0510368347168 293.53793334961 82 1 delete
10:21:29 60.371342 29.563237 8 100.64498595151 3.8041825294495 308.61145019531 82 1 delete
10:21:26 60.371317 29.563447 8 100.82130973359 3.9628417491913 270.01840209961 82 1 delete
10:21:23 60.371323 29.563727 8 101.27241282396 3.9108896255493 270.20770263672 82 1 delete
10:21:20 60.371339 29.564010 6 101.35075455001 3.8742582798004 272.25744628906 82 1 delete
10:21:17 60.371347 29.564235 6 101.35311696393 3.8087465763092 258.09887695312 82 1 delete
10:21:14 60.371370 29.564483 6 100.34543489734 3.7180373668671 261.95004272461 82 1 delete
10:21:11 60.371376 29.564715 6 100.41446014209 3.7167208194733 254.71063232422 82 1 delete
10:21:08 60.371406 29.564998 8 100.07698664802 3.6779427528381 253.25119018555 82 1 delete
10:21:05 60.371387 29.565262 8 100.12287787999 3.6457588672638 291.07336425781 82 1 delete
10:21:02 60.371308 29.565536 12 100.03753166754 3.752828836441 302.52862548828 82 1 delete
10:20:59 60.371268 29.565776 12 99.890106094398 3.9417724609375 283.49194335938 82 1 delete
10:20:56 60.371275 29.566165 8 99.627693037499 3.728682756424 246.14646911621 82 1 delete